Time;durP1;ratioP1;P1;durP2;ratioP2;P2;SDS_P1;SDS_P2;PMS_P1;PMS_P2;Temp;Humidity;BMP_temperature;BMP_pressure;BME280_temperature;BME280_humidity;BME280_pressure;Samples;Min_cycle;Max_cycle;Signal;HPM_P1;HPM_P2
2022/06/29 00:01:30;;;;;;;1.83;0.57;;;18.60;99.90;;;18.21;100.00;97484.22;5022025;28;20096;-70
2022/06/29 00:03:57;;;;;;;2.60;0.60;;;18.60;99.90;;;18.24;100.00;97489.22;5019116;28;20228;-67
2022/06/29 00:06:24;;;;;;;1.85;0.50;;;18.60;99.90;;;18.13;100.00;97492.69;5019712;28;20054;-69
2022/06/29 00:08:51;;;;;;;4.28;0.60;;;18.60;99.90;;;18.12;100.00;97490.97;5020782;28;20081;-69
2022/06/29 00:11:18;;;;;;;4.00;0.63;;;18.60;99.90;;;18.13;100.00;97487.41;5020813;28;20564;-68
2022/06/29 00:13:45;;;;;;;1.55;0.60;;;18.50;99.90;;;18.01;100.00;97492.75;5021029;28;21008;-68
2022/06/29 00:16:11;;;;;;;3.22;0.70;;;18.50;99.90;;;18.05;100.00;97494.19;5019050;28;20173;-70
2022/06/29 00:18:38;;;;;;;4.50;0.60;;;18.50;99.90;;;18.09;100.00;97500.91;5019351;28;20049;-68
2022/06/29 00:21:05;;;;;;;3.22;0.57;;;18.50;99.90;;;18.11;100.00;97507.72;5016714;28;20080;-71
2022/06/29 00:23:32;;;;;;;6.05;0.70;;;18.50;99.90;;;18.08;100.00;97505.28;5020917;28;20060;-69
2022/06/29 00:25:59;;;;;;;3.78;0.75;;;18.50;99.90;;;18.05;100.00;97504.69;5019676;28;20057;-68
2022/06/29 00:28:27;;;;;;;3.75;0.70;;;18.50;99.90;;;18.03;100.00;97499.56;5020352;28;20099;-68
2022/06/29 00:30:54;;;;;;;0.90;0.60;;;18.50;99.90;;;18.07;100.00;97490.50;5022015;28;20058;-69
2022/06/29 00:33:21;;;;;;;5.45;0.93;;;18.40;99.90;;;18.05;100.00;97492.41;5018563;28;20050;-69
2022/06/29 00:35:48;;;;;;;1.83;0.50;;;18.40;99.90;;;18.12;100.00;97485.72;5020464;28;20121;-68
2022/06/29 00:38:15;;;;;;;1.58;0.60;;;18.40;99.90;;;18.07;100.00;97487.03;5022503;28;20061;-67
2022/06/29 00:40:42;;;;;;;2.80;0.60;;;18.40;99.90;;;18.10;100.00;97497.31;5019085;28;20054;-68
2022/06/29 00:43:10;;;;;;;1.55;0.68;;;18.50;99.90;;;18.02;100.00;97487.38;5033852;28;20080;-71
2022/06/29 00:45:37;;;;;;;2.03;0.43;;;18.40;99.90;;;18.05;100.00;97486.31;5021046;28;20508;-69
2022/06/29 00:48:05;;;;;;;0.75;0.40;;;18.50;99.90;;;18.12;100.00;97477.84;5022106;28;20060;-69
2022/06/29 00:50:33;;;;;;;1.50;0.60;;;18.40;99.90;;;18.18;100.00;97476.56;5019367;28;20051;-68
2022/06/29 00:53:05;;;;;;;4.07;0.50;;;18.40;99.90;;;18.17;100.00;97477.50;5021496;28;20426;-69
2022/06/29 00:55:40;;;;;;;2.33;0.60;;;18.40;99.90;;;18.14;100.00;97485.63;5022044;28;20216;-70
2022/06/29 00:58:10;;;;;;;2.08;0.93;;;18.50;99.90;;;18.22;100.00;97491.13;5016976;28;20045;-69
2022/06/29 01:00:37;;;;;;;2.22;0.60;;;18.50;99.90;;;18.13;100.00;97483.94;5021015;28;20057;-70
2022/06/29 01:03:04;;;;;;;1.80;0.52;;;18.50;99.90;;;18.26;100.00;97483.88;5023098;28;20049;-69
2022/06/29 01:05:32;;;;;;;2.30;0.63;;;18.50;99.90;;;18.15;100.00;97479.41;5019461;28;20117;-70
2022/06/29 01:07:59;;;;;;;2.60;0.60;;;18.50;99.90;;;18.28;100.00;97477.53;5015911;28;20350;-69
2022/06/29 01:10:26;;;;;;;2.30;0.60;;;18.40;99.90;;;18.33;100.00;97478.00;5018579;28;20148;-69
2022/06/29 01:12:54;;;;;;;1.92;0.60;;;18.50;99.90;;;18.30;100.00;97466.91;5018025;28;20136;-69
2022/06/29 01:15:21;;;;;;;3.15;0.60;;;18.50;99.90;;;18.21;100.00;97475.50;5016296;28;20049;-69
2022/06/29 01:17:48;;;;;;;2.80;0.68;;;18.60;99.90;;;18.29;100.00;97486.25;5017115;28;20053;-67
2022/06/29 01:20:15;;;;;;;3.35;0.60;;;18.50;99.90;;;18.16;100.00;97483.72;5015709;28;20065;-71
2022/06/29 01:22:43;;;;;;;1.77;0.88;;;18.40;99.90;;;17.88;100.00;97491.03;5017761;28;20137;-69
2022/06/29 01:25:10;;;;;;;4.70;0.70;;;18.30;99.90;;;17.74;100.00;97499.03;5018079;28;20353;-68
2022/06/29 01:27:37;;;;;;;1.90;0.60;;;18.20;99.90;;;17.76;100.00;97505.84;5020000;28;20384;-68
2022/06/29 01:30:08;;;;;;;4.57;0.70;;;18.20;99.90;;;17.59;100.00;97493.13;5018966;28;20072;-68
2022/06/29 01:32:38;;;;;;;3.50;0.70;;;18.10;99.90;;;17.58;100.00;97482.72;5018129;28;20157;-69
2022/06/29 01:35:09;;;;;;;1.45;0.50;;;18.10;99.90;;;17.67;100.00;97479.44;5019336;28;20061;-69
2022/06/29 01:37:38;;;;;;;3.72;0.70;;;18.00;99.90;;;17.73;100.00;97473.75;5019993;28;20080;-67
2022/06/29 01:40:06;;;;;;;1.50;0.70;;;18.00;99.90;;;17.69;100.00;97465.22;5019230;28;20076;-69
2022/06/29 01:42:34;;;;;;;3.20;0.65;;;18.00;99.90;;;17.72;100.00;97457.16;5019560;28;20136;-67
2022/06/29 01:45:01;;;;;;;1.65;0.60;;;18.00;99.90;;;17.78;100.00;97454.06;5019410;28;20133;-71
2022/06/29 01:47:27;;;;;;;3.78;0.63;;;18.00;99.90;;;17.72;100.00;97467.66;5018697;28;20418;-67
2022/06/29 01:49:54;;;;;;;3.15;0.60;;;18.10;99.90;;;17.62;100.00;97468.44;5016898;28;20108;-68
2022/06/29 01:52:22;;;;;;;3.72;0.82;;;18.00;99.90;;;17.59;100.00;97469.50;5019444;28;20688;-68
2022/06/29 01:54:49;;;;;;;2.55;0.68;;;18.00;99.90;;;17.66;100.00;97449.72;5018405;28;20151;-69
2022/06/29 01:57:16;;;;;;;1.35;0.60;;;18.00;99.90;;;17.70;100.00;97447.72;5016922;28;20049;-69
2022/06/29 01:59:43;;;;;;;3.17;0.90;;;18.00;99.90;;;17.73;100.00;97450.94;5015638;28;20128;-68
2022/06/29 02:02:10;;;;;;;1.02;0.60;;;18.10;99.90;;;17.81;100.00;97436.41;5015025;28;20081;-68
2022/06/29 02:04:37;;;;;;;4.80;0.70;;;18.10;99.90;;;17.80;100.00;97437.38;5015957;28;21201;-69
2022/06/29 02:07:04;;;;;;;3.75;0.50;;;18.10;99.90;;;17.73;100.00;97432.56;5016045;28;20562;-68
2022/06/29 02:09:31;;;;;;;2.78;0.60;;;18.10;99.90;;;17.72;100.00;97440.53;5017546;28;20445;-68
2022/06/29 02:11:57;;;;;;;1.50;0.70;;;18.10;99.90;;;17.74;100.00;97439.50;5019724;28;20140;-68
2022/06/29 02:14:25;;;;;;;2.00;0.77;;;18.10;99.90;;;17.81;100.00;97441.66;5018592;28;20045;-68
2022/06/29 02:16:52;;;;;;;1.55;0.60;;;18.10;99.90;;;17.73;100.00;97447.50;5016255;28;20091;-69
2022/06/29 02:19:19;;;;;;;3.80;0.77;;;18.00;99.90;;;17.56;100.00;97454.81;5016710;28;20535;-70
2022/06/29 02:21:49;;;;;;;2.20;0.70;;;18.00;99.90;;;17.51;100.00;97453.47;5016768;28;20136;-68
2022/06/29 02:24:16;;;;;;;7.57;0.55;;;17.90;99.90;;;17.69;100.00;97435.53;5019981;28;20188;-69
2022/06/29 02:26:43;;;;;;;1.65;0.50;;;18.00;99.90;;;17.69;100.00;97423.25;5016785;28;20195;-71
2022/06/29 02:29:09;;;;;;;2.10;0.70;;;18.00;99.90;;;17.77;100.00;97413.03;5017409;28;20049;-68
2022/06/29 02:37:07;;;;;;;1.65;0.60;;;18.00;99.90;;;17.66;100.00;97417.41;5017354;28;20077;-68
2022/06/29 02:39:34;;;;;;;3.95;0.70;;;18.00;99.90;;;17.60;100.00;97421.28;5016323;28;20122;-69
2022/06/29 02:42:02;;;;;;;3.10;0.80;;;18.00;99.90;;;17.47;100.00;97426.63;5019316;28;20076;-69
2022/06/29 02:44:29;;;;;;;2.08;0.63;;;17.90;99.90;;;17.43;100.00;97426.97;5016679;28;20697;-68
2022/06/29 02:46:56;;;;;;;2.25;0.50;;;17.90;99.90;;;17.48;100.00;97422.19;5017854;28;20240;-69
2022/06/29 02:49:23;;;;;;;2.67;0.60;;;17.90;99.90;;;17.63;100.00;97414.97;5018268;28;20049;-69
2022/06/29 02:51:50;;;;;;;1.88;1.02;;;17.90;99.90;;;17.60;100.00;97413.41;5019929;28;20088;-70
2022/06/29 02:54:17;;;;;;;1.75;0.60;;;17.90;99.90;;;17.43;100.00;97408.59;5019679;28;20738;-69
2022/06/29 02:56:44;;;;;;;4.65;0.60;;;17.90;99.90;;;17.41;100.00;97419.19;5016712;28;20077;-69
2022/06/29 02:59:11;;;;;;;5.60;0.70;;;17.80;99.90;;;17.40;100.00;97408.78;5016824;28;20124;-69
2022/06/29 03:01:38;;;;;;;2.17;0.60;;;17.80;99.90;;;17.41;100.00;97400.00;5017446;28;20165;-69
2022/06/29 03:04:05;;;;;;;2.50;0.70;;;17.80;99.90;;;17.36;100.00;97405.56;5019092;28;20213;-68
2022/06/29 03:06:32;;;;;;;2.42;0.60;;;17.80;99.90;;;17.34;100.00;97410.91;5020448;28;20534;-69
2022/06/29 03:09:00;;;;;;;3.92;0.77;;;17.80;99.90;;;17.38;100.00;97419.41;5016694;28;20456;-67
2022/06/29 03:11:26;;;;;;;1.00;0.50;;;17.80;99.90;;;17.50;100.00;97413.25;5016211;28;20416;-69
2022/06/29 03:13:54;;;;;;;2.15;0.57;;;17.80;99.90;;;17.50;100.00;97408.03;5020489;28;20088;-68
2022/06/29 03:16:21;;;;;;;4.07;0.50;;;17.80;99.90;;;17.55;100.00;97395.38;5016869;28;20073;-69
2022/06/29 03:18:50;;;;;;;1.95;0.70;;;17.90;99.90;;;17.48;100.00;97402.03;5015495;28;20537;-69
2022/06/29 03:21:17;;;;;;;4.10;0.65;;;17.90;99.90;;;17.49;100.00;97402.88;5015703;28;20073;-69
2022/06/29 03:23:44;;;;;;;2.42;0.52;;;17.80;99.90;;;17.54;100.00;97404.22;5019367;28;20128;-70
2022/06/29 03:26:12;;;;;;;2.00;0.63;;;17.90;99.90;;;17.66;100.00;97402.47;5018171;28;20461;-69
2022/06/29 03:28:39;;;;;;;3.50;0.82;;;17.90;99.90;;;17.65;100.00;97392.09;5016633;28;20513;-69
2022/06/29 03:31:06;;;;;;;2.33;0.50;;;18.00;99.90;;;17.58;100.00;97402.19;5016865;28;20053;-68
2022/06/29 03:33:33;;;;;;;2.17;0.60;;;18.00;99.90;;;17.64;100.00;97396.50;5015431;28;20042;-68
2022/06/29 03:36:00;;;;;;;2.15;0.70;;;18.00;99.90;;;17.67;100.00;97395.44;5017913;28;20354;-67
2022/06/29 03:38:27;;;;;;;2.47;0.60;;;18.00;99.90;;;17.42;100.00;97393.78;5017566;28;20154;-68
2022/06/29 03:40:54;;;;;;;4.07;0.70;;;17.90;99.90;;;17.39;100.00;97401.88;5016822;28;21011;-68
2022/06/29 03:43:21;;;;;;;2.15;0.60;;;17.90;99.90;;;17.49;100.00;97402.88;5012015;28;20124;-69
2022/06/29 03:45:48;;;;;;;1.85;0.70;;;17.90;99.90;;;17.47;100.00;97400.38;5022286;28;20135;-67
2022/06/29 03:48:15;;;;;;;2.78;0.60;;;17.90;99.90;;;17.52;100.00;97406.13;5019201;28;20064;-69
2022/06/29 03:50:43;;;;;;;4.63;0.60;;;17.90;99.90;;;17.50;100.00;97402.78;5016111;28;20085;-68
2022/06/29 03:53:10;;;;;;;4.65;0.93;;;17.90;99.90;;;17.54;100.00;97408.66;5017313;28;20464;-69
2022/06/29 03:55:37;;;;;;;2.30;0.70;;;17.90;99.90;;;17.51;100.00;97396.56;5015449;28;20128;-70
2022/06/29 03:58:05;;;;;;;4.70;0.80;;;17.90;99.90;;;17.50;100.00;97404.56;5015130;28;20073;-67
2022/06/29 04:00:32;;;;;;;4.20;0.60;;;17.90;99.90;;;17.63;100.00;97400.09;5013142;28;20125;-68
2022/06/29 04:02:59;;;;;;;3.40;0.80;;;17.90;99.90;;;17.65;100.00;97406.06;5014325;28;20081;-69
2022/06/29 04:05:26;;;;;;;5.45;0.60;;;17.90;99.90;;;17.56;100.00;97407.56;5014472;28;20042;-70
2022/06/29 04:07:53;;;;;;;2.65;0.80;;;17.90;99.90;;;17.58;100.00;97415.31;5021632;28;20140;-69
2022/06/29 04:10:20;;;;;;;0.95;0.50;;;17.90;99.90;;;17.72;100.00;97409.91;5016576;28;20108;-68
2022/06/29 04:12:47;;;;;;;2.17;0.60;;;18.00;99.90;;;17.76;100.00;97400.81;5015679;28;20173;-69
2022/06/29 04:15:14;;;;;;;1.17;0.52;;;18.10;99.90;;;17.78;100.00;97396.31;5014381;28;20145;-69
2022/06/29 04:17:41;;;;;;;1.80;0.52;;;18.20;99.90;;;17.83;100.00;97405.66;5016782;28;20092;-69
2022/06/29 04:21:05;;;;;;;1.30;0.60;;;18.20;99.90;;;17.77;100.00;97415.66;5012970;28;20049;-69
2022/06/29 04:22:56;;;;;;;1.38;0.60;;;18.30;99.90;;;17.94;100.00;97429.31;5015512;28;20584;-70
2022/06/29 04:25:23;;;;;;;3.20;0.70;;;18.30;99.90;;;17.85;100.00;97422.97;5014334;28;20172;-69
2022/06/29 04:27:50;;;;;;;1.65;0.63;;;18.30;99.90;;;17.95;100.00;97410.00;5021560;28;20065;-71
2022/06/29 04:30:17;;;;;;;2.90;0.80;;;18.30;99.90;;;17.95;100.00;97402.97;5019416;28;20568;-70
2022/06/29 04:32:44;;;;;;;1.50;0.65;;;18.40;99.90;;;17.82;100.00;97404.00;5018965;28;20141;-69
2022/06/29 04:35:11;;;;;;;3.15;0.70;;;18.40;99.90;;;17.85;100.00;97394.09;5019107;28;20077;-69
2022/06/29 04:37:38;;;;;;;1.85;0.70;;;18.30;99.90;;;18.04;100.00;97398.81;5019722;28;20057;-69
2022/06/29 04:40:06;;;;;;;3.58;0.60;;;18.40;99.90;;;18.31;100.00;97406.34;5020956;28;20204;-68
2022/06/29 04:42:33;;;;;;;3.05;0.70;;;18.50;99.90;;;18.13;100.00;97405.13;5019617;28;20048;-68
2022/06/29 04:45:00;;;;;;;1.65;0.60;;;18.50;99.90;;;18.16;100.00;97411.00;5019973;28;20091;-70
2022/06/29 04:47:27;;;;;;;2.22;0.60;;;18.50;99.90;;;18.23;100.00;97406.13;5021892;28;20080;-71
2022/06/29 04:49:54;;;;;;;3.92;0.60;;;18.60;99.90;;;18.27;100.00;97411.97;5017897;28;20096;-68
2022/06/29 04:52:21;;;;;;;3.05;0.57;;;18.70;99.90;;;18.37;100.00;97416.41;5018614;28;20129;-68
2022/06/29 04:54:48;;;;;;;1.67;0.82;;;18.80;99.90;;;18.56;100.00;97400.03;5020209;28;20063;-70
2022/06/29 04:57:15;;;;;;;3.97;0.80;;;18.90;99.90;;;18.66;100.00;97387.03;5018045;28;20081;-69
2022/06/29 04:59:42;;;;;;;1.05;0.50;;;19.10;99.90;;;18.75;100.00;97388.94;5016376;28;20053;-67
2022/06/29 05:02:09;;;;;;;2.28;0.50;;;19.20;99.90;;;18.92;100.00;97368.38;5018825;28;20087;-67
2022/06/29 05:04:36;;;;;;;1.23;0.60;;;19.40;99.90;;;19.12;100.00;97367.63;5018644;28;20046;-67
2022/06/29 05:07:03;;;;;;;2.10;0.60;;;19.50;99.90;;;19.25;100.00;97366.59;5015874;28;20085;-67
2022/06/29 05:09:30;;;;;;;2.50;0.60;;;19.70;99.90;;;19.49;100.00;97364.59;5019866;28;20493;-67
2022/06/29 05:11:57;;;;;;;1.55;0.60;;;20.00;99.90;;;19.73;100.00;97361.78;5019679;28;20137;-68
2022/06/29 05:14:25;;;;;;;1.67;0.60;;;20.20;99.90;;;19.89;100.00;97356.06;5014077;28;20060;-70
2022/06/29 05:16:52;;;;;;;1.20;0.60;;;20.30;99.90;;;19.89;100.00;97350.81;5022587;28;20156;-68
2022/06/29 05:19:19;;;;;;;3.10;0.70;;;20.50;99.90;;;19.94;100.00;97358.31;5012814;28;20473;-69
2022/06/29 05:21:46;;;;;;;2.35;0.50;;;20.50;99.90;;;19.99;100.00;97356.13;5019420;28;20132;-69
2022/06/29 05:24:13;;;;;;;1.60;0.60;;;20.60;99.90;;;20.03;100.00;97358.38;5019711;28;20056;-70
2022/06/29 05:26:42;;;;;;;1.98;0.43;;;20.70;99.90;;;20.19;100.00;97354.44;5018637;28;20046;-69
2022/06/29 05:29:09;;;;;;;1.45;0.60;;;20.80;99.90;;;20.16;100.00;97358.19;5018027;28;20062;-69
2022/06/29 05:31:36;;;;;;;1.15;0.45;;;20.90;99.90;;;20.15;100.00;97368.84;5020837;28;20164;-69
2022/06/29 05:34:03;;;;;;;7.18;0.80;;;20.90;99.90;;;20.19;100.00;97359.72;5015862;28;20054;-69
2022/06/29 05:36:30;;;;;;;2.88;0.73;;;21.00;99.90;;;20.05;100.00;97356.44;5019120;28;20129;-68
2022/06/29 05:38:57;;;;;;;1.60;0.70;;;21.00;99.90;;;20.12;100.00;97359.41;5018925;28;20451;-67
2022/06/29 05:41:24;;;;;;;1.83;0.63;;;20.90;99.90;;;19.95;100.00;97365.25;5019042;28;20121;-69
2022/06/29 05:43:51;;;;;;;1.98;0.70;;;20.80;99.90;;;19.84;100.00;97360.88;5016902;28;20177;-67
2022/06/29 05:46:22;;;;;;;4.72;0.55;;;20.70;99.90;;;20.02;100.00;97361.94;5011686;28;20128;-68
2022/06/29 05:48:50;;;;;;;2.58;0.73;;;20.70;99.90;;;20.09;100.00;97356.19;5017846;28;20094;-69
2022/06/29 05:51:17;;;;;;;2.50;0.60;;;20.80;99.90;;;20.16;100.00;97354.69;5019534;28;20100;-68
2022/06/29 05:53:44;;;;;;;1.85;0.68;;;20.80;99.90;;;20.14;100.00;97353.97;5018687;28;20134;-70
2022/06/29 05:56:12;;;;;;;1.75;0.60;;;20.90;99.90;;;20.31;100.00;97349.91;5019124;28;20136;-69
2022/06/29 05:58:39;;;;;;;1.25;0.55;;;21.00;99.90;;;20.35;100.00;97353.97;5018354;28;20572;-68
2022/06/29 06:01:09;;;;;;;1.77;0.40;;;21.10;99.90;;;20.44;100.00;97353.16;5018300;28;20493;-69
2022/06/29 06:03:36;;;;;;;1.50;0.60;;;21.20;99.90;;;20.46;100.00;97356.50;5016205;28;20177;-70
2022/06/29 06:06:04;;;;;;;1.27;0.60;;;21.20;99.90;;;20.47;100.00;97359.00;5019938;28;20084;-68
2022/06/29 06:08:31;;;;;;;1.25;0.63;;;21.20;99.90;;;20.59;100.00;97357.13;5018109;28;20929;-70
2022/06/29 06:10:58;;;;;;;0.88;0.50;;;21.20;99.90;;;20.87;100.00;97354.75;5018368;28;20491;-69
2022/06/29 06:13:25;;;;;;;5.05;0.60;;;21.30;99.90;;;20.80;100.00;97353.56;5017224;28;20050;-70
2022/06/29 06:15:53;;;;;;;1.33;0.50;;;21.50;99.90;;;20.39;100.00;97365.88;5017576;28;20215;-68
2022/06/29 06:18:20;;;;;;;2.65;0.47;;;21.40;99.90;;;20.51;100.00;97356.13;5013879;28;20042;-69
2022/06/29 06:20:47;;;;;;;1.75;0.60;;;21.50;99.90;;;20.77;100.00;97365.25;5014218;28;20132;-68
2022/06/29 06:23:14;;;;;;;1.25;0.57;;;21.50;99.90;;;20.82;100.00;97360.41;5016392;28;20651;-67
2022/06/29 06:25:41;;;;;;;3.90;0.80;;;21.60;99.90;;;20.79;100.00;97351.94;5018424;28;20136;-69
2022/06/29 06:28:08;;;;;;;1.20;0.60;;;21.60;99.90;;;20.79;100.00;97355.38;5019983;28;20050;-68
2022/06/29 06:30:35;;;;;;;1.65;0.90;;;21.50;99.90;;;21.02;100.00;97356.00;5017810;28;20397;-68
2022/06/29 06:33:02;;;;;;;3.67;0.70;;;21.70;99.90;;;21.01;100.00;97356.16;5021313;28;20104;-67
2022/06/29 06:35:30;;;;;;;1.38;0.60;;;21.70;99.90;;;21.04;100.00;97358.50;5016807;28;20140;-68
2022/06/29 06:37:57;;;;;;;1.00;0.40;;;21.80;99.90;;;21.09;100.00;97365.03;5017405;28;20076;-69
2022/06/29 06:43:09;;;;;;;3.13;0.50;;;21.90;99.90;;;21.47;100.00;97367.91;5021660;28;20560;-68
2022/06/29 06:45:37;;;;;;;1.38;0.68;;;22.00;99.90;;;21.62;100.00;97363.88;5017347;28;20064;-68
2022/06/29 06:48:04;;;;;;;1.25;0.60;;;22.00;99.90;;;21.76;100.00;97369.69;5019579;28;20050;-70
2022/06/29 06:50:31;;;;;;;0.77;0.45;;;22.20;99.90;;;21.71;100.00;97372.75;5015168;28;20057;-70
2022/06/29 06:52:58;;;;;;;2.38;0.73;;;22.20;99.90;;;21.84;100.00;97375.09;5019490;28;20117;-68
2022/06/29 06:55:25;;;;;;;3.35;0.70;;;22.50;99.90;;;21.91;100.00;97377.03;5018593;28;20057;-67
2022/06/29 06:57:52;;;;;;;1.83;0.60;;;22.60;99.90;;;22.12;100.00;97376.03;5016215;28;20132;-68
2022/06/29 07:00:19;;;;;;;1.40;0.70;;;22.80;99.90;;;22.39;100.00;97377.94;5019238;28;20113;-69
2022/06/29 07:02:46;;;;;;;1.02;0.40;;;22.80;99.90;;;22.65;100.00;97366.69;5017833;28;20538;-71
2022/06/29 07:05:13;;;;;;;4.10;0.60;;;22.90;99.90;;;22.76;100.00;97363.84;5013690;28;20526;-68
2022/06/29 07:07:40;;;;;;;2.20;0.60;;;23.00;99.90;;;22.36;100.00;97367.66;5017728;28;20049;-69
2022/06/29 07:10:07;;;;;;;1.40;0.57;;;23.10;99.90;;;22.22;100.00;97365.47;5012787;28;20076;-70
2022/06/29 07:12:34;;;;;;;1.27;0.50;;;23.00;99.90;;;22.08;100.00;97364.91;5018472;28;20838;-69
2022/06/29 07:15:01;;;;;;;2.65;0.63;;;23.00;99.90;;;22.31;100.00;97368.09;5015448;28;20084;-68
2022/06/29 07:17:29;;;;;;;10.50;0.98;;;23.10;99.90;;;22.37;100.00;97366.66;5016622;28;20049;-68
2022/06/29 07:19:56;;;;;;;1.48;0.60;;;23.20;99.90;;;22.37;100.00;97358.72;5008805;28;20115;-67
2022/06/29 07:22:23;;;;;;;2.30;0.60;;;23.40;99.90;;;22.38;100.00;97362.22;5019806;28;20049;-68
2022/06/29 07:24:50;;;;;;;3.33;0.63;;;23.40;99.90;;;22.59;100.00;97360.19;5019443;28;20618;-70
2022/06/29 07:27:17;;;;;;;2.08;0.50;;;23.50;99.90;;;22.82;100.00;97352.69;5017702;28;20586;-69
2022/06/29 07:29:44;;;;;;;1.42;0.60;;;23.70;99.90;;;22.85;100.00;97362.97;5019737;28;20053;-68
2022/06/29 07:32:11;;;;;;;5.68;0.82;;;23.70;99.90;;;22.83;100.00;97353.50;5017242;28;20579;-69
2022/06/29 07:34:38;;;;;;;1.67;0.70;;;23.70;99.90;;;22.81;100.00;97350.16;5014508;28;20184;-71
2022/06/29 07:37:05;;;;;;;2.17;0.57;;;23.90;99.90;;;23.16;100.00;97350.28;5015740;28;20145;-70
2022/06/29 07:39:32;;;;;;;1.73;0.70;;;24.00;99.90;;;23.08;100.00;97344.91;5014389;28;20084;-69
2022/06/29 07:42:19;;;;;;;1.77;0.60;;;24.00;99.90;;;23.57;100.00;97340.06;5014071;28;20038;-69
2022/06/29 07:44:46;;;;;;;3.20;0.60;;;24.20;99.90;;;23.33;100.00;97348.63;5018271;28;20300;-69
2022/06/29 07:47:13;;;;;;;1.50;0.50;;;24.30;99.90;;;23.84;100.00;97342.81;5016239;28;20136;-69
2022/06/29 07:49:40;;;;;;;1.92;0.70;;;24.50;99.90;;;23.66;100.00;97343.63;5016352;28;20692;-69
2022/06/29 07:52:07;;;;;;;4.75;0.68;;;24.60;99.90;;;23.90;100.00;97340.38;5013321;28;20077;-69
2022/06/29 07:54:34;;;;;;;2.70;0.70;;;24.80;99.90;;;24.41;100.00;97343.97;5016222;28;20136;-69
2022/06/29 07:57:01;;;;;;;2.70;0.70;;;25.10;99.90;;;24.24;100.00;97341.38;5020928;28;20509;-68
2022/06/29 07:59:47;;;;;;;1.80;0.60;;;25.30;99.90;;;24.99;100.00;97341.56;5018142;28;20084;-68
2022/06/29 08:02:15;;;;;;;4.28;0.82;;;25.60;99.90;;;25.09;100.00;97339.63;5017574;28;20141;-70
2022/06/29 08:04:42;;;;;;;2.40;0.65;;;;;;;24.81;100.00;97336.38;5018700;28;20080;-69
2022/06/29 08:07:29;;;;;;;2.10;0.63;;;26.20;99.90;;;25.29;100.00;97334.84;5017702;28;20042;-70
2022/06/29 08:09:57;;;;;;;2.55;0.73;;;26.20;99.90;;;25.69;100.00;97333.22;5022021;28;20084;-68
2022/06/29 08:12:24;;;;;;;2.00;0.70;;;26.50;99.90;;;24.71;100.00;97341.00;5018008;28;20077;-68
2022/06/29 08:14:51;;;;;;;3.30;0.70;;;26.40;99.90;;;25.53;100.00;97334.06;5018901;28;20053;-69
2022/06/29 08:17:18;;;;;;;3.35;0.60;;;26.40;99.90;;;25.22;100.00;97328.53;5021274;28;20493;-69
2022/06/29 08:19:46;;;;;;;1.77;0.80;;;26.40;99.90;;;24.67;100.00;97335.16;5018504;28;20555;-69
2022/06/29 08:22:13;;;;;;;1.98;0.70;;;26.40;99.90;;;26.02;100.00;97336.72;5016400;28;20240;-68
2022/06/29 08:24:40;;;;;;;1.02;0.70;;;26.70;99.90;;;26.02;100.00;97338.53;5018931;28;20171;-68
2022/06/29 08:27:07;;;;;;;1.80;0.88;;;27.00;99.90;;;25.33;100.00;97332.72;5019780;28;20139;-68
2022/06/29 08:29:54;;;;;;;3.15;0.90;;;27.00;99.40;;;25.35;100.00;97336.84;5018167;28;20049;-69
2022/06/29 08:32:21;;;;;;;3.33;0.98;;;26.90;99.60;;;24.98;100.00;97331.94;5021420;28;20085;-68
2022/06/29 08:34:48;;;;;;;3.25;0.80;;;26.80;99.80;;;25.08;100.00;97345.09;5019626;28;20474;-68
2022/06/29 08:37:15;;;;;;;1.63;0.70;;;26.60;99.90;;;25.37;100.00;97332.22;5019029;28;20077;-68
2022/06/29 08:39:42;;;;;;;5.75;1.02;;;26.50;99.90;;;25.23;100.00;97332.88;5016984;28;20092;-68
2022/06/29 08:42:11;;;;;;;2.80;0.70;;;26.40;99.90;;;26.05;100.00;97343.53;5021766;28;20137;-68
2022/06/29 08:44:39;;;;;;;4.05;0.70;;;26.70;99.90;;;26.36;100.00;97346.28;5019837;28;20054;-71
2022/06/29 08:47:08;;;;;;;3.42;0.70;;;26.90;99.90;;;26.49;100.00;97341.25;5019606;28;20424;-68
2022/06/29 08:49:37;;;;;;;1.25;0.50;;;27.00;99.90;;;26.49;100.00;97343.09;5017401;28;20065;-68
2022/06/29 08:52:06;;;;;;;2.92;0.60;;;27.20;99.50;;;26.58;100.00;97343.94;5022552;28;20674;-69
2022/06/29 08:54:44;;;;;;;4.10;0.63;;;27.40;99.20;;;26.53;100.00;97343.59;5017711;28;20053;-69
2022/06/29 08:57:12;;;;;;;2.63;0.70;;;27.30;99.60;;;26.00;100.00;97349.38;5015552;28;20041;-68
2022/06/29 08:59:40;;;;;;;3.05;1.13;;;27.00;99.30;;;25.81;100.00;97349.66;5019247;28;20042;-68
2022/06/29 09:02:27;;;;;;;2.33;0.77;;;27.00;99.10;;;25.69;100.00;97340.38;5019214;28;20057;-70
2022/06/29 09:04:55;;;;;;;5.63;1.00;;;26.90;98.50;;;25.50;100.00;97338.84;5001488;28;20054;-69
2022/06/29 09:07:24;;;;;;;1.52;0.70;;;26.80;98.60;;;25.46;100.00;97347.16;5017787;28;20088;-69
2022/06/29 09:10:16;;;;;;;2.67;1.02;;;26.90;98.30;;;24.60;100.00;97345.56;5017264;28;20041;-68
2022/06/29 09:12:52;;;;;;;1.45;0.60;;;26.80;97.70;;;25.59;100.00;97348.50;5020907;28;20081;-68
2022/06/29 09:15:34;;;;;;;2.42;0.70;;;26.80;98.50;;;25.80;100.00;97354.16;5019450;28;20063;-68
2022/06/29 09:18:03;;;;;;;3.78;0.88;;;26.70;99.40;;;25.63;100.00;97339.19;5018197;28;20140;-68
2022/06/29 09:20:38;;;;;;;2.35;0.60;;;26.60;99.30;;;26.23;100.00;97343.34;5016010;28;20059;-68
2022/06/29 09:23:12;;;;;;;;;;;26.50;99.60;;;25.94;100.00;97352.69;5019517;28;20080;-68
2022/06/29 09:25:41;;;;;;;1.08;0.60;;;26.70;99.90;;;26.01;100.00;97351.00;5013332;28;19952;-70
2022/06/29 09:28:23;;;;;;;2.78;0.80;;;26.90;99.90;;;26.31;100.00;97353.13;5017929;28;20130;-67
2022/06/29 09:30:55;;;;;;;1.77;0.70;;;27.00;99.50;;;26.14;100.00;97360.28;5017507;28;20077;-68
2022/06/29 09:33:25;;;;;;;4.90;0.80;;;27.10;99.80;;;25.72;100.00;97354.16;5014291;28;20492;-68
2022/06/29 09:36:14;;;;;;;1.83;0.65;;;27.10;98.90;;;26.45;100.00;97360.41;5017192;28;20133;-68
2022/06/29 09:38:41;;;;;;;1.95;0.70;;;27.10;99.20;;;26.45;100.00;97360.41;5015882;28;20038;-69
2022/06/29 09:41:12;;;;;;;2.45;0.60;;;27.10;99.10;;;26.93;100.00;97361.22;5017621;28;20088;-68
2022/06/29 09:43:46;;;;;;;4.32;0.80;;;27.30;98.70;;;26.87;100.00;97361.94;5016286;28;20127;-67
2022/06/29 09:46:16;;;;;;;2.88;0.70;;;27.50;99.00;;;27.08;100.00;97359.50;5019183;28;20084;-68
2022/06/29 09:48:44;;;;;;;3.17;0.75;;;27.60;98.80;;;27.08;100.00;97358.69;5016901;28;20161;-68
2022/06/29 09:51:31;;;;;;;1.75;0.60;;;27.60;99.00;;;27.65;100.00;97360.16;5014047;28;20183;-67
2022/06/29 09:54:10;;;;;;;4.15;0.98;;;;;;;27.46;100.00;97358.78;5020780;28;20135;-67
2022/06/29 09:56:50;;;;;;;6.00;1.00;;;28.20;98.60;;;27.44;100.00;97353.66;5019696;28;20061;-68
2022/06/29 10:02:36;;;;;;;1.75;1.13;;;28.20;98.60;;;27.39;100.00;97355.19;5016278;28;20129;-68
2022/06/29 10:05:12;;;;;;;5.10;1.00;;;28.30;98.70;;;26.84;100.00;97362.28;5017550;28;20055;-70
2022/06/29 10:07:49;;;;;;;4.05;0.90;;;28.30;98.00;;;27.11;100.00;97361.81;5018583;28;20124;-68
2022/06/29 10:10:19;;;;;;;4.53;0.70;;;28.40;98.00;;;27.46;100.00;97354.31;5020906;28;20174;-68
2022/06/29 10:16:14;;;;;;;4.28;0.90;;;28.50;97.20;;;27.19;100.00;97350.28;5017567;28;20132;-67
2022/06/29 10:19:26;;;;;;;1.57;0.63;;;28.30;98.00;;;27.15;100.00;97356.16;5017773;28;20069;-68
2022/06/29 10:21:55;;;;;;;;;;;28.20;97.90;;;27.59;100.00;97352.88;5001537;28;20087;-68
2022/06/29 10:24:22;;;;;;;3.45;0.70;;;28.30;97.30;;;27.56;100.00;97350.56;5027273;28;20383;-69
2022/06/29 10:26:50;;;;;;;2.88;0.60;;;28.50;97.20;;;28.90;100.00;97344.41;5017498;28;20076;-68
2022/06/29 10:29:17;;;;;;;2.33;0.70;;;;;;;30.01;100.00;97344.91;5016450;28;20090;-68
2022/06/29 10:32:00;;;;;;;2.28;0.80;;;29.50;97.50;;;29.93;100.00;97338.91;5018191;28;20495;-68
2022/06/29 10:34:30;;;;;;;5.88;0.70;;;29.80;95.40;;;29.44;100.00;97345.00;5017364;28;20050;-68